createdAt,value
2022-10-26T00:01:11.175Z,3.35
2022-10-26T00:03:39.527Z,3.85
2022-10-26T00:06:10.104Z,3.58
2022-10-26T00:08:37.674Z,3.83
2022-10-26T00:11:05.731Z,3.65
2022-10-26T00:13:33.250Z,3.55
2022-10-26T00:18:32.007Z,3.35
2022-10-26T00:21:07.334Z,3.92
2022-10-26T00:23:34.319Z,3.50
2022-10-26T00:26:01.371Z,3.42
2022-10-26T00:28:28.527Z,3.22
2022-10-26T00:31:00.102Z,3.58
2022-10-26T00:33:27.795Z,3.53
2022-10-26T00:35:54.940Z,3.13
2022-10-26T00:38:22.016Z,3.80
2022-10-26T00:40:49.392Z,4.57
2022-10-26T00:43:20.277Z,3.75
2022-10-26T00:45:49.815Z,3.53
2022-10-26T00:48:35.150Z,3.25
2022-10-26T00:51:08.768Z,3.08
2022-10-26T00:53:36.184Z,3.22
2022-10-26T00:56:03.764Z,3.38
2022-10-26T00:58:31.457Z,3.20
2022-10-26T01:00:58.563Z,3.20
2022-10-26T01:03:28.037Z,3.20
2022-10-26T01:05:57.729Z,3.47
2022-10-26T01:08:26.372Z,4.00
2022-10-26T01:10:53.672Z,3.47
2022-10-26T01:13:21.238Z,3.65
2022-10-26T01:15:56.832Z,3.30
2022-10-26T01:18:34.472Z,3.10
2022-10-26T01:21:07.309Z,3.17
2022-10-26T01:23:56.340Z,3.60
2022-10-26T01:26:41.761Z,3.53
2022-10-26T01:29:36.726Z,3.80
2022-10-26T01:32:40.582Z,3.65
2022-10-26T01:35:21.688Z,3.75
2022-10-26T01:38:13.938Z,2.97
2022-10-26T01:41:16.206Z,3.60
2022-10-26T01:43:50.667Z,3.45
2022-10-26T01:48:56.027Z,3.28
2022-10-26T01:51:23.658Z,3.15
2022-10-26T01:53:50.668Z,3.33
2022-10-26T01:56:25.587Z,3.10
2022-10-26T01:58:55.653Z,3.53
2022-10-26T02:01:53.466Z,3.88
2022-10-26T02:04:42.174Z,2.85
2022-10-26T02:07:24.074Z,3.50
2022-10-26T02:10:18.098Z,4.90
2022-10-26T02:13:03.820Z,3.47
2022-10-26T02:15:59.782Z,3.40
2022-10-26T02:18:26.788Z,3.30
2022-10-26T02:20:59.398Z,3.65
2022-10-26T02:23:27.633Z,3.50
2022-10-26T02:25:59.092Z,3.35
2022-10-26T02:28:39.818Z,3.60
2022-10-26T02:31:09.168Z,3.40
2022-10-26T02:33:40.852Z,3.72
2022-10-26T02:36:11.703Z,3.78
2022-10-26T02:38:41.599Z,3.53
2022-10-26T02:41:10.040Z,3.58
2022-10-26T02:43:43.985Z,5.97
2022-10-26T02:46:15.450Z,4.32
2022-10-26T02:48:42.407Z,3.80
2022-10-26T02:54:31.260Z,3.53
2022-10-26T02:57:10.502Z,3.42
2022-10-26T02:59:41.349Z,3.30
2022-10-26T03:02:08.947Z,3.60
2022-10-26T03:04:36.018Z,3.63
2022-10-26T03:07:02.981Z,3.17
2022-10-26T03:09:29.887Z,3.38
2022-10-26T03:11:56.813Z,3.70
2022-10-26T03:14:23.870Z,4.05
2022-10-26T03:19:18.907Z,3.88
2022-10-26T03:21:45.847Z,3.75
2022-10-26T03:24:12.872Z,3.58
2022-10-26T03:26:39.847Z,3.58
2022-10-26T03:29:06.935Z,3.63
2022-10-26T03:31:33.865Z,4.07
2022-10-26T03:34:00.920Z,4.10
2022-10-26T03:36:27.824Z,4.05
2022-10-26T03:38:54.779Z,3.72
2022-10-26T03:41:21.704Z,4.70
2022-10-26T03:43:48.955Z,3.88
2022-10-26T03:46:15.891Z,4.05
2022-10-26T03:48:42.880Z,4.60
2022-10-26T03:51:09.882Z,3.75
2022-10-26T03:53:36.786Z,5.07
2022-10-26T03:56:03.834Z,4.60
2022-10-26T03:58:30.916Z,5.70
2022-10-26T04:00:57.969Z,4.50
2022-10-26T04:03:24.867Z,5.55
2022-10-26T04:05:51.792Z,6.20
2022-10-26T04:08:19.148Z,7.32
2022-10-26T04:10:47.550Z,4.40
2022-10-26T04:13:14.842Z,4.03
2022-10-26T04:15:41.841Z,4.55
2022-10-26T04:18:09.772Z,4.07
2022-10-26T04:20:39.116Z,4.35
2022-10-26T04:23:07.862Z,4.40
2022-10-26T04:25:34.853Z,4.55
2022-10-26T04:28:04.750Z,4.50
2022-10-26T04:30:32.736Z,3.90
2022-10-26T04:32:59.686Z,4.80
2022-10-26T04:35:27.538Z,4.05
2022-10-26T04:37:59.702Z,4.28
2022-10-26T04:40:27.676Z,4.20
2022-10-26T04:42:54.798Z,4.18
2022-10-26T04:45:22.089Z,4.20
2022-10-26T04:48:17.353Z,3.85
2022-10-26T04:50:44.413Z,3.67
2022-10-26T04:53:11.470Z,4.63
2022-10-26T04:55:38.481Z,4.50
2022-10-26T04:58:06.175Z,8.43
2022-10-26T05:00:35.353Z,6.70
2022-10-26T05:03:03.983Z,3.95
2022-10-26T05:05:32.843Z,5.03
2022-10-26T05:08:00.002Z,5.10
2022-10-26T05:10:27.976Z,4.45
2022-10-26T05:12:56.516Z,4.22
2022-10-26T05:15:24.046Z,4.47
2022-10-26T05:17:58.558Z,8.30
2022-10-26T05:20:30.268Z,3.90
2022-10-26T05:23:01.343Z,4.78
2022-10-26T05:25:30.914Z,4.38
2022-10-26T05:27:59.439Z,4.90
2022-10-26T05:30:26.703Z,4.72
2022-10-26T05:32:55.802Z,4.68
2022-10-26T05:35:22.931Z,4.95
2022-10-26T05:37:49.845Z,4.95
2022-10-26T05:40:17.772Z,4.53
2022-10-26T05:42:45.318Z,6.68
2022-10-26T05:45:13.993Z,11.68
2022-10-26T05:47:42.306Z,4.75
2022-10-26T05:50:10.806Z,8.15
2022-10-26T05:52:41.603Z,6.35
2022-10-26T05:55:10.223Z,5.10
2022-10-26T05:57:37.848Z,9.65
2022-10-26T06:00:15.979Z,5.93
2022-10-26T06:03:23.097Z,5.30
2022-10-26T06:05:58.878Z,4.32
2022-10-26T06:08:28.241Z,5.70
2022-10-26T06:10:59.503Z,6.30
2022-10-26T06:13:26.750Z,4.60
2022-10-26T06:16:24.637Z,7.05
2022-10-26T06:19:01.143Z,4.68
2022-10-26T06:22:04.287Z,6.07
2022-10-26T06:24:45.894Z,4.75
2022-10-26T06:27:18.567Z,6.07
2022-10-26T06:29:58.464Z,4.25
2022-10-26T06:32:25.588Z,4.00
2022-10-26T06:35:07.043Z,4.80
2022-10-26T06:37:36.165Z,4.65
2022-10-26T06:40:04.782Z,4.57
2022-10-26T06:42:32.566Z,4.63
2022-10-26T06:44:59.724Z,4.47
2022-10-26T06:47:43.960Z,4.53
2022-10-26T06:50:51.577Z,5.20
2022-10-26T06:53:36.163Z,4.30
2022-10-26T06:56:03.431Z,4.93
2022-10-26T06:58:35.111Z,4.82
2022-10-26T07:01:02.660Z,6.05
2022-10-26T07:03:29.675Z,4.93
2022-10-26T07:05:56.622Z,4.40
2022-10-26T07:08:23.972Z,4.82
2022-10-26T07:10:50.882Z,4.28
2022-10-26T07:13:18.806Z,4.60
2022-10-26T07:15:45.738Z,5.20
2022-10-26T07:18:12.788Z,4.25
2022-10-26T07:20:41.470Z,4.35
2022-10-26T07:23:12.894Z,5.20
2022-10-26T07:25:40.774Z,4.47
2022-10-26T07:28:10.635Z,4.72
2022-10-26T07:30:39.434Z,4.45
2022-10-26T07:33:15.414Z,4.88
2022-10-26T07:35:42.490Z,4.55
2022-10-26T07:38:12.458Z,5.45
2022-10-26T07:40:39.409Z,4.65
2022-10-26T07:43:06.815Z,4.50
2022-10-26T07:45:33.810Z,4.40
2022-10-26T07:48:00.768Z,4.03
2022-10-26T07:50:28.195Z,4.85
2022-10-26T07:52:55.097Z,4.57
2022-10-26T07:55:22.168Z,4.53
2022-10-26T07:57:52.591Z,5.20
2022-10-26T08:00:22.156Z,5.18
2022-10-26T08:02:49.380Z,4.85
2022-10-26T08:05:16.958Z,4.20
2022-10-26T08:07:49.120Z,4.63
2022-10-26T08:10:18.332Z,4.28
2022-10-26T08:12:47.060Z,4.65
2022-10-26T08:15:14.285Z,4.72
2022-10-26T08:17:41.334Z,3.80
2022-10-26T08:20:08.794Z,3.97
2022-10-26T08:22:35.947Z,3.65
2022-10-26T08:25:03.378Z,4.07
2022-10-26T08:27:30.437Z,3.40
2022-10-26T08:29:57.605Z,3.13
2022-10-26T08:32:24.603Z,3.88
2022-10-26T08:34:51.696Z,3.33
2022-10-26T08:37:18.597Z,3.65
2022-10-26T08:39:48.136Z,2.80
2022-10-26T08:42:24.007Z,3.20
2022-10-26T08:44:58.632Z,3.13
2022-10-26T08:47:48.188Z,3.00
2022-10-26T08:50:27.397Z,2.90
2022-10-26T08:53:17.530Z,3.72
2022-10-26T08:55:50.926Z,3.28
2022-10-26T08:58:22.799Z,2.67
2022-10-26T09:00:51.620Z,4.82
2022-10-26T09:03:19.364Z,2.75
2022-10-26T09:06:16.245Z,2.55
2022-10-26T09:08:49.206Z,3.05
2022-10-26T09:11:19.096Z,3.08
2022-10-26T09:14:04.533Z,2.70
2022-10-26T09:16:49.152Z,2.80
2022-10-26T09:19:24.901Z,2.50
2022-10-26T09:22:23.032Z,2.10
2022-10-26T09:24:58.606Z,2.45
2022-10-26T09:27:32.471Z,2.33
2022-10-26T09:30:04.669Z,2.20
2022-10-26T09:32:59.130Z,2.45
2022-10-26T09:38:12.964Z,2.80
2022-10-26T09:40:57.340Z,2.13
2022-10-26T09:43:36.229Z,2.05
2022-10-26T09:46:03.373Z,1.98
2022-10-26T09:48:46.513Z,2.13
2022-10-26T09:51:15.701Z,1.90
2022-10-26T09:53:43.158Z,2.50
2022-10-26T09:56:13.144Z,2.17
2022-10-26T09:58:54.705Z,2.45
2022-10-26T10:01:30.386Z,2.40
2022-10-26T10:04:22.838Z,1.85
2022-10-26T10:07:02.067Z,2.20
2022-10-26T10:09:29.049Z,2.20
2022-10-26T10:11:58.985Z,2.83
2022-10-26T10:14:34.733Z,2.80
2022-10-26T10:17:19.654Z,2.55
2022-10-26T10:19:46.780Z,2.22
2022-10-26T10:22:18.707Z,2.30
2022-10-26T10:25:03.805Z,2.35
2022-10-26T10:27:33.489Z,2.35
2022-10-26T10:30:22.766Z,1.98
2022-10-26T10:33:05.767Z,2.50
2022-10-26T10:35:33.060Z,2.28
2022-10-26T10:38:00.468Z,2.33
2022-10-26T10:40:31.355Z,2.13
2022-10-26T10:43:14.605Z,2.13
2022-10-26T10:45:46.649Z,2.00
2022-10-26T10:48:27.794Z,2.15
2022-10-26T10:51:02.312Z,2.10
2022-10-26T10:53:37.663Z,1.80
2022-10-26T10:56:31.015Z,1.88
2022-10-26T10:59:39.494Z,1.80
2022-10-26T11:02:06.549Z,2.17
2022-10-26T11:05:01.938Z,1.77
2022-10-26T11:07:32.460Z,1.83
2022-10-26T11:10:04.003Z,2.40
2022-10-26T11:12:41.858Z,2.42
2022-10-26T11:15:13.411Z,2.13
2022-10-26T11:18:18.061Z,1.88
2022-10-26T11:20:54.202Z,3.33
2022-10-26T11:23:40.214Z,2.28
2022-10-26T11:26:20.180Z,2.47
2022-10-26T11:28:53.925Z,2.50
2022-10-26T11:31:29.408Z,2.40
2022-10-26T11:34:08.703Z,2.45
2022-10-26T11:36:38.959Z,2.88
2022-10-26T11:39:20.524Z,1.92
2022-10-26T11:42:03.734Z,2.25
2022-10-26T11:44:52.835Z,2.03
2022-10-26T11:47:34.929Z,2.13
2022-10-26T11:50:36.754Z,2.17
2022-10-26T11:53:18.196Z,2.13
2022-10-26T11:55:54.494Z,1.63
2022-10-26T11:58:26.019Z,1.98
2022-10-26T12:01:01.827Z,3.15
2022-10-26T12:03:32.877Z,2.08
2022-10-26T12:05:59.813Z,2.30
2022-10-26T12:08:37.745Z,1.50
2022-10-26T12:13:42.640Z,2.17
2022-10-26T12:16:44.455Z,1.92
2022-10-26T12:19:42.450Z,2.05
2022-10-26T12:22:13.646Z,1.98
2022-10-26T12:25:04.552Z,2.15
2022-10-26T12:27:40.566Z,1.85
2022-10-26T12:30:19.858Z,1.70
2022-10-26T12:32:48.585Z,2.05
2022-10-26T12:35:45.664Z,2.25
2022-10-26T12:38:26.165Z,2.20
2022-10-26T12:41:07.549Z,2.30
2022-10-26T12:43:39.947Z,1.88
2022-10-26T12:46:13.206Z,2.22
2022-10-26T12:48:48.712Z,2.35
2022-10-26T12:51:18.659Z,2.67
2022-10-26T12:54:07.260Z,1.88
2022-10-26T12:56:43.472Z,2.50
2022-10-26T12:59:35.014Z,2.15
2022-10-26T13:02:24.182Z,2.35
2022-10-26T13:05:05.991Z,2.53
2022-10-26T13:07:38.211Z,2.03
2022-10-26T13:10:14.680Z,2.30
2022-10-26T13:12:57.903Z,2.50
2022-10-26T13:15:39.174Z,2.10
2022-10-26T13:18:14.381Z,2.92
2022-10-26T13:20:53.289Z,2.08
2022-10-26T13:23:31.417Z,2.20
2022-10-26T13:26:08.491Z,14.35
2022-10-26T13:28:38.517Z,2.60
2022-10-26T13:31:31.405Z,3.42
2022-10-26T13:34:01.726Z,2.75
2022-10-26T13:36:34.316Z,3.85
2022-10-26T13:39:32.630Z,2.80
2022-10-26T13:42:00.942Z,2.70
2022-10-26T13:44:53.830Z,2.42
2022-10-26T13:47:41.577Z,2.22
2022-10-26T13:50:14.851Z,2.60
2022-10-26T13:52:45.616Z,2.20
2022-10-26T13:55:37.195Z,2.40
2022-10-26T13:58:19.188Z,2.90
2022-10-26T14:01:13.304Z,2.53
2022-10-26T14:03:41.667Z,2.90
2022-10-26T14:06:19.756Z,2.28
2022-10-26T14:08:49.517Z,2.22
2022-10-26T14:11:20.442Z,1.90
2022-10-26T14:13:50.326Z,2.72
2022-10-26T14:16:22.754Z,2.15
2022-10-26T14:18:49.959Z,2.80
2022-10-26T14:21:20.121Z,1.90
2022-10-26T14:23:51.879Z,1.67
2022-10-26T14:26:31.446Z,2.03
2022-10-26T14:29:01.134Z,2.75
2022-10-26T14:31:30.666Z,2.33
2022-10-26T14:33:59.662Z,2.20
2022-10-26T14:36:29.421Z,2.20
2022-10-26T14:39:09.553Z,3.53
2022-10-26T14:41:36.921Z,2.20
2022-10-26T14:44:04.321Z,6.80
2022-10-26T14:46:35.438Z,2.88
2022-10-26T14:49:03.934Z,7.68
2022-10-26T14:51:35.818Z,5.10
2022-10-26T14:54:04.440Z,12.05
2022-10-26T14:56:43.514Z,4.72
2022-10-26T14:59:32.325Z,4.00
2022-10-26T15:02:11.385Z,5.47
2022-10-26T15:04:56.933Z,19.10
2022-10-26T15:07:24.986Z,13.82
2022-10-26T15:09:53.522Z,8.70
2022-10-26T15:12:39.305Z,25.58
2022-10-26T15:15:15.794Z,47.38
2022-10-26T15:17:50.653Z,10.48
2022-10-26T15:20:23.508Z,80.55
2022-10-26T15:22:56.279Z,61.78
2022-10-26T15:25:26.931Z,22.83
2022-10-26T15:27:54.467Z,10.63
2022-10-26T15:30:21.947Z,13.93
2022-10-26T15:32:49.822Z,10.43
2022-10-26T15:35:19.919Z,3.30
2022-10-26T15:37:47.888Z,4.43
2022-10-26T15:40:15.232Z,4.75
2022-10-26T15:42:45.398Z,5.32
2022-10-26T15:45:34.197Z,11.40
2022-10-26T15:48:17.271Z,14.43
2022-10-26T15:50:44.408Z,12.18
2022-10-26T15:53:19.177Z,31.85
2022-10-26T15:55:46.481Z,25.17
2022-10-26T15:58:14.567Z,7.55
2022-10-26T16:00:41.550Z,15.60
2022-10-26T16:03:22.728Z,16.00
2022-10-26T16:05:57.421Z,12.05
2022-10-26T16:08:25.096Z,5.40
2022-10-26T16:10:52.021Z,15.05
2022-10-26T16:13:19.051Z,4.43
2022-10-26T16:15:46.237Z,5.15
2022-10-26T16:18:15.135Z,3.70
2022-10-26T16:20:44.964Z,3.08
2022-10-26T16:23:12.304Z,3.40
2022-10-26T16:25:44.996Z,2.78
2022-10-26T16:28:13.976Z,4.10
2022-10-26T16:33:13.343Z,2.85
2022-10-26T16:35:40.428Z,2.17
2022-10-26T16:38:07.357Z,3.53
2022-10-26T16:40:34.346Z,2.95
2022-10-26T16:43:01.225Z,3.38
2022-10-26T16:45:28.172Z,3.80
2022-10-26T16:47:55.159Z,3.88
2022-10-26T16:50:23.261Z,5.13
2022-10-26T16:52:50.279Z,6.32
2022-10-26T16:55:17.415Z,10.38
2022-10-26T16:57:44.423Z,36.60
2022-10-26T17:00:11.706Z,63.67
2022-10-26T17:02:39.787Z,62.67
2022-10-26T17:05:07.571Z,25.65
2022-10-26T17:07:35.434Z,35.65
2022-10-26T17:10:02.396Z,36.15
2022-10-26T17:12:30.024Z,32.05
2022-10-26T17:14:58.988Z,4.03
2022-10-26T17:17:26.128Z,7.22
2022-10-26T17:19:53.048Z,6.38
2022-10-26T17:22:20.064Z,3.78
2022-10-26T17:24:47.007Z,4.20
2022-10-26T17:27:14.049Z,4.63
2022-10-26T17:29:40.994Z,3.75
2022-10-26T17:32:08.042Z,4.55
2022-10-26T17:34:35.028Z,3.25
2022-10-26T17:37:02.064Z,3.05
2022-10-26T17:39:29.695Z,5.32
2022-10-26T17:41:56.615Z,6.88
2022-10-26T17:44:24.092Z,3.22
2022-10-26T17:46:51.009Z,4.00
2022-10-26T17:49:18.009Z,4.10
2022-10-26T17:51:44.933Z,2.83
2022-10-26T17:54:11.849Z,3.72
2022-10-26T17:56:39.443Z,2.38
2022-10-26T17:59:11.462Z,3.22
2022-10-26T18:01:38.681Z,2.60
2022-10-26T18:04:05.775Z,3.20
2022-10-26T18:06:32.695Z,2.95
2022-10-26T18:08:59.664Z,2.95
2022-10-26T18:11:28.536Z,4.07
2022-10-26T18:13:57.387Z,2.40
2022-10-26T18:16:26.150Z,2.85
2022-10-26T18:19:01.881Z,3.80
2022-10-26T18:21:34.340Z,3.20
2022-10-26T18:24:01.284Z,3.40
2022-10-26T18:26:30.037Z,4.28
2022-10-26T18:28:58.196Z,5.47
2022-10-26T18:31:26.449Z,5.00
2022-10-26T18:34:04.216Z,4.78
2022-10-26T18:36:31.999Z,5.10
2022-10-26T18:38:59.317Z,4.88
2022-10-26T18:41:27.238Z,4.13
2022-10-26T18:43:58.848Z,3.88
2022-10-26T18:46:31.009Z,3.83
2022-10-26T18:48:59.340Z,4.13
2022-10-26T18:51:30.811Z,4.35
2022-10-26T18:53:59.030Z,5.65
2022-10-26T18:56:27.416Z,4.65
2022-10-26T18:58:58.497Z,4.78
2022-10-26T19:01:31.038Z,4.25
2022-10-26T19:04:00.626Z,3.80
2022-10-26T19:06:28.989Z,4.15
2022-10-26T19:08:56.716Z,4.75
2022-10-26T19:11:25.458Z,3.85
2022-10-26T19:13:54.194Z,3.35
2022-10-26T19:16:40.747Z,3.67
2022-10-26T19:19:10.714Z,4.00
2022-10-26T19:21:37.793Z,3.25
2022-10-26T19:24:05.215Z,3.85
2022-10-26T19:26:36.764Z,2.88
2022-10-26T19:29:06.550Z,2.95
2022-10-26T19:31:35.792Z,3.05
2022-10-26T19:34:03.340Z,3.00
2022-10-26T19:36:30.374Z,3.42
2022-10-26T19:38:57.753Z,3.42
2022-10-26T19:41:26.920Z,2.85
2022-10-26T19:46:27.575Z,2.70
2022-10-26T19:48:59.537Z,3.28
2022-10-26T19:51:28.568Z,3.00
2022-10-26T19:53:57.898Z,3.47
2022-10-26T19:56:27.685Z,3.78
2022-10-26T19:58:55.823Z,3.40
2022-10-26T20:01:23.279Z,3.55
2022-10-26T20:03:51.093Z,3.63
2022-10-26T20:06:18.641Z,3.28
2022-10-26T20:08:48.051Z,3.42
2022-10-26T20:11:16.882Z,3.17
2022-10-26T20:13:45.777Z,3.28
2022-10-26T20:16:13.758Z,3.38
2022-10-26T20:18:44.157Z,2.90
2022-10-26T20:21:17.701Z,3.15
2022-10-26T20:23:45.219Z,4.28
2022-10-26T20:26:18.912Z,3.70
2022-10-26T20:28:48.262Z,3.65
2022-10-26T20:31:15.632Z,3.42
2022-10-26T20:33:42.733Z,3.20
2022-10-26T20:36:10.172Z,3.28
2022-10-26T20:38:38.608Z,3.47
2022-10-26T20:41:09.253Z,3.88
2022-10-26T20:43:39.725Z,3.22
2022-10-26T20:46:11.937Z,3.22
2022-10-26T20:48:39.133Z,3.40
2022-10-26T20:51:37.689Z,2.92
2022-10-26T20:54:13.884Z,3.10
2022-10-26T20:56:42.192Z,3.28
2022-10-26T21:02:04.797Z,4.43
2022-10-26T21:04:31.952Z,4.50
2022-10-26T21:06:58.846Z,4.07
2022-10-26T21:09:27.447Z,4.78
2022-10-26T21:11:57.761Z,5.28
2022-10-26T21:14:25.126Z,3.65
2022-10-26T21:16:52.012Z,3.53
2022-10-26T21:19:19.737Z,2.30
2022-10-26T21:21:46.874Z,2.30
2022-10-26T21:24:14.052Z,3.92
2022-10-26T21:26:40.973Z,3.45
2022-10-26T21:29:08.238Z,3.10
2022-10-26T21:31:35.293Z,3.30
2022-10-26T21:34:02.324Z,4.72
2022-10-26T21:36:29.299Z,3.15
2022-10-26T21:38:56.295Z,3.25
2022-10-26T21:44:03.443Z,3.42
2022-10-26T21:46:38.407Z,3.40
2022-10-26T21:49:08.021Z,2.95
2022-10-26T21:51:35.651Z,2.90
2022-10-26T21:54:03.543Z,2.28
2022-10-26T21:56:30.503Z,2.38
2022-10-26T21:58:59.123Z,3.05
2022-10-26T22:01:26.485Z,3.42
2022-10-26T22:03:53.497Z,3.15
2022-10-26T22:08:52.708Z,3.20
2022-10-26T22:11:22.567Z,2.83
2022-10-26T22:13:51.200Z,2.70
2022-10-26T22:16:23.832Z,2.72
2022-10-26T22:18:53.688Z,2.50
2022-10-26T22:21:22.408Z,2.17
2022-10-26T22:23:49.542Z,2.53
2022-10-26T22:26:21.498Z,2.60
2022-10-26T22:28:51.391Z,2.30
2022-10-26T22:31:20.716Z,2.42
2022-10-26T22:34:11.100Z,2.30
2022-10-26T22:36:38.087Z,2.58
2022-10-26T22:39:05.117Z,2.55
2022-10-26T22:41:32.122Z,3.45
2022-10-26T22:43:59.220Z,2.67
2022-10-26T22:46:27.962Z,2.60
2022-10-26T22:48:56.775Z,3.90
2022-10-26T22:51:25.284Z,4.13
2022-10-26T22:53:53.948Z,3.22
2022-10-26T22:56:22.113Z,4.70
2022-10-26T22:58:52.010Z,3.35
2022-10-26T23:01:25.301Z,2.72
2022-10-26T23:03:56.245Z,3.00
2022-10-26T23:06:25.601Z,3.08
2022-10-26T23:08:52.541Z,3.10
2022-10-26T23:11:22.093Z,2.40
2022-10-26T23:13:56.058Z,3.90
2022-10-26T23:16:23.476Z,5.45
2022-10-26T23:18:50.809Z,6.35
2022-10-26T23:21:18.097Z,6.22
2022-10-26T23:23:45.337Z,5.15
2022-10-26T23:26:18.201Z,4.05
2022-10-26T23:28:45.715Z,4.10
2022-10-26T23:31:20.371Z,4.50
2022-10-26T23:33:49.696Z,4.15
2022-10-26T23:36:16.765Z,4.80
2022-10-26T23:38:43.842Z,3.60
2022-10-26T23:41:12.922Z,3.33
2022-10-26T23:43:40.903Z,2.88
2022-10-26T23:46:08.299Z,3.00
2022-10-26T23:48:35.382Z,3.20
2022-10-26T23:51:02.320Z,4.25
2022-10-26T23:53:29.352Z,5.10
2022-10-26T23:55:56.273Z,5.07
2022-10-26T23:58:23.295Z,4.80
